Time;durP1;ratioP1;P1;durP2;ratioP2;P2;SDS_P1;SDS_P2;PMS_P1;PMS_P2;Temp;Humidity;BMP_temperature;BMP_pressure;BME280_temperature;BME280_humidity;BME280_pressure;Samples;Min_cycle;Max_cycle;Signal;HPM_P1;HPM_P2
2023/04/12 00:01:01;;;;;;;2.78;1.90;;;;;;;;;;5054914;28;20033;-73
2023/04/12 00:03:26;;;;;;;3.03;1.73;;;;;;;;;;5055012;28;20511;-73
2023/04/12 00:05:55;;;;;;;3.80;1.83;;;;;;;;;;5055346;28;20028;-73
2023/04/12 00:08:25;;;;;;;7.97;2.05;;;;;;;;;;5054881;28;20250;-73
2023/04/12 00:10:51;;;;;;;5.50;2.20;;;;;;;;;;5055006;28;20108;-73
2023/04/12 00:13:16;;;;;;;3.03;1.90;;;;;;;;;;5054647;28;20060;-73
2023/04/12 00:15:41;;;;;;;7.20;1.90;;;;;;;;;;5054828;28;20032;-73
2023/04/12 00:18:07;;;;;;;3.22;1.80;;;;;;;;;;5054660;28;20519;-73
2023/04/12 00:20:32;;;;;;;2.90;1.90;;;;;;;;;;5053465;28;20021;-73
2023/04/12 00:22:57;;;;;;;3.25;1.88;;;;;;;;;;5054586;28;20319;-74
2023/04/12 00:25:23;;;;;;;2.90;1.87;;;;;;;;;;5054880;28;20021;-74
2023/04/12 00:27:48;;;;;;;2.95;2.08;;;;;;;;;;5054662;28;20272;-73
2023/04/12 00:30:13;;;;;;;3.60;1.90;;;;;;;;;;5054847;28;20112;-73
2023/04/12 00:32:40;;;;;;;5.10;2.42;;;;;;;;;;5053096;28;20075;-72
2023/04/12 00:35:05;;;;;;;5.93;2.40;;;;;;;;;;5053130;28;20029;-73
2023/04/12 00:37:31;;;;;;;6.07;2.40;;;;;;;;;;5053312;28;20055;-73
2023/04/12 00:39:56;;;;;;;6.68;2.55;;;;;;;;;;5054500;28;20031;-73
2023/04/12 00:42:22;;;;;;;4.47;2.43;;;;;;;;;;5054764;28;20372;-73
2023/04/12 00:44:47;;;;;;;4.10;2.47;;;;;;;;;;5054209;28;20633;-73
2023/04/12 00:47:12;;;;;;;3.47;2.17;;;;;;;;;;5054120;28;20745;-73
2023/04/12 00:49:37;;;;;;;3.22;2.13;;;;;;;;;;5054280;28;20721;-74
2023/04/12 00:52:05;;;;;;;3.88;2.20;;;;;;;;;;5054022;28;20055;-73
2023/04/12 00:54:32;;;;;;;4.90;2.00;;;;;;;;;;5054004;28;20472;-73
2023/04/12 00:56:59;;;;;;;5.00;2.10;;;;;;;;;;5053917;28;20506;-73
2023/04/12 00:59:25;;;;;;;3.65;2.17;;;;;;;;;;5053930;28;20027;-73
2023/04/12 01:01:51;;;;;;;3.65;2.03;;;;;;;;;;5054075;28;20152;-74
2023/04/12 01:04:17;;;;;;;5.07;2.13;;;;;;;;;;5054039;28;20472;-74
2023/04/12 01:07:04;;;;;;;3.28;1.85;;;;;;;;;;5053799;28;20103;-73
2023/04/12 01:09:44;;;;;;;5.43;2.00;;;;;;;;;;5053927;28;20025;-72
2023/04/12 01:13:05;;;;;;;4.60;2.03;;;;;;;;;;5052958;28;20090;-73
2023/04/12 01:15:36;;;;;;;4.55;2.05;;;;;;;;;;5031730;28;20061;-73
2023/04/12 01:18:10;;;;;;;2.40;1.85;;;;;;;;;;5051549;28;20350;-73
2023/04/12 01:20:49;;;;;;;2.40;1.80;;;;;;;;;;5054094;28;20025;-73
2023/04/12 01:23:39;;;;;;;2.60;1.77;;;;;;;;;;5053634;28;20033;-72
2023/04/12 01:26:31;;;;;;;3.63;1.98;;;;;;;;;;5053427;28;20021;-74
2023/04/12 01:28:58;;;;;;;4.43;1.88;;;;;;;;;;5052167;28;20028;-72
2023/04/12 01:31:25;;;;;;;3.30;1.80;;;;;;;;;;5053296;28;20037;-72
2023/04/12 01:33:51;;;;;;;3.20;2.10;;;;;;;;;;5053358;28;20085;-73
2023/04/12 01:36:20;;;;;;;6.13;2.33;;;;;;;;;;5053524;28;20029;-73
2023/04/12 01:38:45;;;;;;;3.30;2.08;;;;;;;;;;5053224;28;20036;-72
2023/04/12 01:41:11;;;;;;;3.30;1.85;;;;;;;;;;5053137;28;20021;-71
2023/04/12 01:43:44;;;;;;;5.97;2.05;;;;;;;;;;5051664;28;20485;-73
2023/04/12 01:46:11;;;;;;;2.70;1.83;;;;;;;;;;5053206;28;20036;-73
2023/04/12 01:48:38;;;;;;;4.00;2.13;;;;;;;;;;5053062;28;20534;-73
2023/04/12 01:51:24;;;;;;;4.47;1.90;;;;;;;;;;5053043;28;20052;-72
2023/04/12 01:54:09;;;;;;;3.55;1.63;;;;;;;;;;5053381;28;20049;-72
2023/04/12 01:56:35;;;;;;;4.28;2.05;;;;;;;;;;5051732;28;20029;-73
2023/04/12 01:59:03;;;;;;;3.53;1.85;;;;;;;;;;5053045;28;20484;-73
2023/04/12 02:01:29;;;;;;;5.18;2.15;;;;;;;;;;5053147;28;20056;-73
2023/04/12 02:03:57;;;;;;;4.00;2.20;;;;;;;;;;5051619;28;20069;-74
2023/04/12 02:06:23;;;;;;;5.63;2.08;;;;;;;;;;5051649;28;20021;-73
2023/04/12 02:08:49;;;;;;;3.53;2.00;;;;;;;;;;5052820;28;20490;-73
2023/04/12 02:11:14;;;;;;;6.05;2.42;;;;;;;;;;5052841;28;20078;-73
2023/04/12 02:13:40;;;;;;;4.63;2.10;;;;;;;;;;5051593;28;20020;-74
2023/04/12 02:16:06;;;;;;;3.22;2.00;;;;;;;;;;5051521;28;20036;-73
2023/04/12 02:18:34;;;;;;;2.65;1.85;;;;;;;;;;5052669;28;20029;-73
2023/04/12 02:20:59;;;;;;;3.28;1.63;;;;;;;;;;5052742;28;20040;-73
2023/04/12 02:23:24;;;;;;;3.65;1.98;;;;;;;;;;5052981;28;20412;-73
2023/04/12 02:25:50;;;;;;;6.00;1.80;;;;;;;;;;5056156;28;20048;-73
2023/04/12 02:28:15;;;;;;;2.27;1.73;;;;;;;;;;5057023;28;20052;-73
2023/04/12 02:30:40;;;;;;;2.70;1.87;;;;;;;;;;5056741;28;20300;-73
2023/04/12 02:33:08;;;;;;;5.95;2.03;;;;;;;;;;5056638;28;20262;-73
2023/04/12 02:35:33;;;;;;;3.10;1.77;;;;;;;;;;5056911;28;20503;-74
2023/04/12 02:37:59;;;;;;;3.22;1.70;;;;;;;;;;5056825;28;20033;-74
2023/04/12 02:40:24;;;;;;;4.10;1.70;;;;;;;;;;5055340;28;20454;-73
2023/04/12 02:42:49;;;;;;;3.67;1.58;;;;;;;;;;5056544;28;20715;-74
2023/04/12 02:45:15;;;;;;;3.53;1.88;;;;;;;;;;5056062;28;20035;-74
2023/04/12 02:47:40;;;;;;;3.47;1.90;;;;;;;;;;5056467;28;20426;-74
2023/04/12 02:50:06;;;;;;;5.03;1.83;;;;;;;;;;5056760;28;20112;-74
2023/04/12 02:52:31;;;;;;;3.00;1.75;;;;;;;;;;5056354;28;20369;-74
2023/04/12 02:54:57;;;;;;;3.35;1.85;;;;;;;;;;5056293;28;20412;-74
2023/04/12 02:57:23;;;;;;;2.50;1.83;;;;;;;;;;5054967;28;20074;-74
2023/04/12 02:59:54;;;;;;;2.00;1.65;;;;;;;;;;5056369;28;20029;-74
2023/04/12 03:02:20;;;;;;;2.70;1.85;;;;;;;;;;5054874;28;20028;-74
2023/04/12 03:04:49;;;;;;;3.85;2.08;;;;;;;;;;5056528;28;20025;-74
2023/04/12 03:07:16;;;;;;;2.58;1.88;;;;;;;;;;5055090;28;20017;-74
2023/04/12 03:09:43;;;;;;;3.75;2.00;;;;;;;;;;5056084;28;20025;-74
2023/04/12 03:12:08;;;;;;;2.47;1.83;;;;;;;;;;5055925;28;20107;-74
2023/04/12 03:14:33;;;;;;;8.18;2.35;;;;;;;;;;5055999;28;20434;-74
2023/04/12 03:16:59;;;;;;;5.10;2.08;;;;;;;;;;5056426;28;20112;-74
2023/04/12 03:19:24;;;;;;;3.60;2.10;;;;;;;;;;5056186;28;20098;-74
2023/04/12 03:21:50;;;;;;;3.42;2.03;;;;;;;;;;5055689;28;20033;-74
2023/04/12 03:24:15;;;;;;;4.55;2.10;;;;;;;;;;5055692;28;20029;-74
2023/04/12 03:26:42;;;;;;;4.55;2.60;;;;;;;;;;5055741;28;20079;-75
2023/04/12 03:29:07;;;;;;;3.15;1.90;;;;;;;;;;5054398;28;20028;-74
2023/04/12 03:31:33;;;;;;;2.80;1.90;;;;;;;;;;5055694;28;20021;-74
2023/04/12 03:33:59;;;;;;;2.78;2.00;;;;;;;;;;5055849;28;20039;-74
2023/04/12 03:36:26;;;;;;;4.22;2.20;;;;;;;;;;5054832;28;20138;-74
2023/04/12 03:38:51;;;;;;;3.47;2.10;;;;;;;;;;5054213;28;20439;-74
2023/04/12 03:41:16;;;;;;;4.50;2.42;;;;;;;;;;5055237;28;20056;-73
2023/04/12 03:43:42;;;;;;;5.72;2.30;;;;;;;;;;5055220;28;20021;-73
2023/04/12 03:46:07;;;;;;;4.80;2.70;;;;;;;;;;5054125;28;20041;-73
2023/04/12 03:48:33;;;;;;;3.85;2.30;;;;;;;;;;5055385;28;20033;-73
2023/04/12 03:50:58;;;;;;;4.72;2.50;;;;;;;;;;5055242;28;20032;-73
2023/04/12 03:53:25;;;;;;;3.33;2.30;;;;;;;;;;5055132;28;20017;-73
2023/04/12 03:55:51;;;;;;;2.50;2.15;;;;;;;;;;5055207;28;20060;-73
2023/04/12 03:58:17;;;;;;;3.90;2.30;;;;;;;;;;5055793;28;20468;-73
2023/04/12 04:00:43;;;;;;;5.30;2.25;;;;;;;;;;5055327;28;20025;-73
2023/04/12 04:03:08;;;;;;;4.88;2.42;;;;;;;;;;5055496;28;20029;-72
2023/04/12 04:05:34;;;;;;;5.05;2.47;;;;;;;;;;5054985;28;20075;-73
2023/04/12 04:08:01;;;;;;;5.00;2.42;;;;;;;;;;5054981;28;20020;-73
2023/04/12 04:10:30;;;;;;;7.25;4.32;;;;;;;;;;5054983;28;20024;-72
2023/04/12 04:12:55;;;;;;;7.75;4.53;;;;;;;;;;5054799;28;20090;-73
2023/04/12 04:15:20;;;;;;;9.10;4.15;;;;;;;;;;5055089;28;20029;-73
2023/04/12 04:17:47;;;;;;;6.13;3.33;;;;;;;;;;5054709;28;20111;-73
2023/04/12 04:20:13;;;;;;;5.22;2.78;;;;;;;;;;5054942;28;20104;-73
2023/04/12 04:22:38;;;;;;;3.92;2.60;;;;;;;;;;5053342;28;20132;-73
2023/04/12 04:25:04;;;;;;;6.70;2.78;;;;;;;;;;5053317;28;20082;-72
2023/04/12 04:27:33;;;;;;;4.63;2.25;;;;;;;;;;5053360;28;20021;-73
2023/04/12 04:29:58;;;;;;;3.83;2.70;;;;;;;;;;5054808;28;20020;-73
2023/04/12 04:32:24;;;;;;;5.25;2.83;;;;;;;;;;5053173;28;20081;-73
2023/04/12 04:34:50;;;;;;;5.18;2.60;;;;;;;;;;5054656;28;20053;-73
2023/04/12 04:37:16;;;;;;;6.75;2.83;;;;;;;;;;5054572;28;20036;-73
2023/04/12 04:39:42;;;;;;;6.95;2.65;;;;;;;;;;5053109;28;20021;-73
2023/04/12 04:42:07;;;;;;;9.45;2.97;;;;;;;;;;5054420;28;20100;-73
2023/04/12 04:44:34;;;;;;;5.50;3.15;;;;;;;;;;5052803;28;20028;-72
2023/04/12 04:46:59;;;;;;;4.75;2.97;;;;;;;;;;5053067;28;20028;-73
2023/04/12 04:49:25;;;;;;;6.67;3.13;;;;;;;;;;5054354;28;20020;-73
2023/04/12 04:51:50;;;;;;;5.80;3.13;;;;;;;;;;5053981;28;20264;-73
2023/04/12 04:54:15;;;;;;;4.70;2.88;;;;;;;;;;5053371;28;20476;-73
2023/04/12 04:56:41;;;;;;;4.95;3.10;;;;;;;;;;5053903;28;20107;-73
2023/04/12 04:59:06;;;;;;;8.98;2.83;;;;;;;;;;5052755;28;20028;-73
2023/04/12 05:01:34;;;;;;;5.50;2.63;;;;;;;;;;5054298;28;20031;-73
2023/04/12 05:04:00;;;;;;;5.35;2.72;;;;;;;;;;5054144;28;20745;-73
2023/04/12 05:06:26;;;;;;;4.40;3.00;;;;;;;;;;5053725;28;20032;-72
2023/04/12 05:08:51;;;;;;;5.63;3.17;;;;;;;;;;5054108;28;20400;-72
2023/04/12 05:11:17;;;;;;;6.78;3.10;;;;;;;;;;5053751;28;20025;-72
2023/04/12 05:13:42;;;;;;;4.68;3.03;;;;;;;;;;5053983;28;20055;-72
2023/04/12 05:16:07;;;;;;;7.70;3.00;;;;;;;;;;5054206;28;20033;-72
2023/04/12 05:18:33;;;;;;;4.15;2.70;;;;;;;;;;5053336;28;20293;-73
2023/04/12 05:21:02;;;;;;;6.03;2.90;;;;;;;;;;5053731;28;20472;-72
2023/04/12 05:23:28;;;;;;;4.93;3.00;;;;;;;;;;5053530;28;20028;-72
2023/04/12 05:25:53;;;;;;;5.55;2.97;;;;;;;;;;5053565;28;20035;-72
2023/04/12 05:28:18;;;;;;;5.32;2.92;;;;;;;;;;5052197;28;20079;-73
2023/04/12 05:30:44;;;;;;;4.20;2.90;;;;;;;;;;5053451;28;20439;-73
2023/04/12 05:33:10;;;;;;;5.85;3.40;;;;;;;;;;5053759;28;20625;-73
2023/04/12 05:35:35;;;;;;;6.07;3.15;;;;;;;;;;5053427;28;20487;-73
2023/04/12 05:38:00;;;;;;;7.05;3.25;;;;;;;;;;5053260;28;20103;-73
2023/04/12 05:40:25;;;;;;;6.20;3.17;;;;;;;;;;5053239;28;20025;-73
2023/04/12 05:42:51;;;;;;;4.60;2.90;;;;;;;;;;5053339;28;20025;-73
2023/04/12 05:45:16;;;;;;;4.73;2.87;;;;;;;;;;5053138;28;20025;-73
2023/04/12 05:47:41;;;;;;;4.43;2.95;;;;;;;;;;5053063;28;20308;-73
2023/04/12 05:50:07;;;;;;;6.13;3.37;;;;;;;;;;5053159;28;20102;-73
2023/04/12 05:52:32;;;;;;;4.60;2.85;;;;;;;;;;5053027;28;20254;-73
2023/04/12 05:54:58;;;;;;;5.90;2.97;;;;;;;;;;5053004;28;20503;-74
2023/04/12 05:57:23;;;;;;;4.50;3.00;;;;;;;;;;5051592;28;20476;-73
2023/04/12 05:59:49;;;;;;;5.22;3.22;;;;;;;;;;5053033;28;20078;-73
2023/04/12 06:02:14;;;;;;;6.15;3.20;;;;;;;;;;5052886;28;20536;-73
2023/04/12 06:04:39;;;;;;;7.88;2.90;;;;;;;;;;5053224;28;20028;-73
2023/04/12 06:07:05;;;;;;;4.80;3.15;;;;;;;;;;5051639;28;20024;-74
2023/04/12 06:09:30;;;;;;;6.85;3.03;;;;;;;;;;5051557;28;20025;-73
2023/04/12 06:11:56;;;;;;;5.15;3.30;;;;;;;;;;5051173;28;20036;-73
2023/04/12 06:14:21;;;;;;;5.23;3.33;;;;;;;;;;5051304;28;20067;-72
2023/04/12 06:16:46;;;;;;;8.23;2.83;;;;;;;;;;5052920;28;20324;-73
2023/04/12 06:19:11;;;;;;;5.57;3.03;;;;;;;;;;5051565;28;20033;-73
2023/04/12 06:21:37;;;;;;;5.32;2.83;;;;;;;;;;5053015;28;20269;-74
2023/04/12 06:24:02;;;;;;;6.13;3.50;;;;;;;;;;5052710;28;20032;-74
2023/04/12 06:26:29;;;;;;;7.88;3.33;;;;;;;;;;5051310;28;20124;-74
2023/04/12 06:28:54;;;;;;;8.00;2.85;;;;;;;;;;5052598;28;20029;-74
2023/04/12 06:31:30;;;;;;;5.38;3.03;;;;;;;;;;5051328;28;20024;-74
2023/04/12 06:33:55;;;;;;;8.65;3.38;;;;;;;;;;5051395;28;20029;-74
2023/04/12 06:36:20;;;;;;;5.25;3.10;;;;;;;;;;5052764;28;20377;-74
2023/04/12 06:38:47;;;;;;;6.45;3.00;;;;;;;;;;5052663;28;20033;-74
2023/04/12 06:41:12;;;;;;;9.38;3.42;;;;;;;;;;5052646;28;20107;-73
2023/04/12 06:43:37;;;;;;;5.75;2.88;;;;;;;;;;5052568;28;20063;-75
2023/04/12 06:46:03;;;;;;;5.15;3.20;;;;;;;;;;5052233;28;20021;-74
2023/04/12 06:48:28;;;;;;;5.60;2.67;;;;;;;;;;5052362;28;20096;-74
2023/04/12 06:50:54;;;;;;;5.50;2.60;;;;;;;;;;5052439;28;20496;-74
2023/04/12 06:53:19;;;;;;;6.18;2.58;;;;;;;;;;5052346;28;20025;-74
2023/04/12 06:55:44;;;;;;;5.93;3.10;;;;;;;;;;5052647;28;20021;-73
2023/04/12 06:58:09;;;;;;;4.47;2.30;;;;;;;;;;5052547;28;20060;-73
2023/04/12 07:00:35;;;;;;;3.80;2.47;;;;;;;;;;5051122;28;20347;-73
2023/04/12 07:03:00;;;;;;;5.18;2.53;;;;;;;;;;5052408;28;20258;-73
2023/04/12 07:05:25;;;;;;;4.17;2.20;;;;;;;;;;5052651;28;20079;-74
2023/04/12 07:07:51;;;;;;;6.27;2.30;;;;;;;;;;5052136;28;20363;-73
2023/04/12 07:10:16;;;;;;;3.30;2.00;;;;;;;;;;5053046;28;20313;-73
2023/04/12 07:12:41;;;;;;;4.30;1.90;;;;;;;;;;5055919;28;20285;-74
2023/04/12 07:15:07;;;;;;;5.67;2.13;;;;;;;;;;5056055;28;20137;-73
2023/04/12 07:17:32;;;;;;;6.88;2.30;;;;;;;;;;5056139;28;20326;-74
2023/04/12 07:19:58;;;;;;;5.93;2.60;;;;;;;;;;5054683;28;20119;-74
2023/04/12 07:22:23;;;;;;;3.00;1.83;;;;;;;;;;5054738;28;20342;-73
2023/04/12 07:24:49;;;;;;;4.30;2.10;;;;;;;;;;5055789;28;20273;-74
2023/04/12 07:27:14;;;;;;;3.42;1.83;;;;;;;;;;5055827;28;20032;-74
2023/04/12 07:29:40;;;;;;;5.72;2.20;;;;;;;;;;5055723;28;20033;-74
2023/04/12 07:32:07;;;;;;;6.35;2.10;;;;;;;;;;5055796;28;20028;-73
2023/04/12 07:34:32;;;;;;;3.63;1.80;;;;;;;;;;5055638;28;20357;-74
2023/04/12 07:36:59;;;;;;;3.07;1.87;;;;;;;;;;5056123;28;20025;-73
2023/04/12 07:39:25;;;;;;;5.63;2.00;;;;;;;;;;5055478;28;20262;-73
2023/04/12 07:41:50;;;;;;;4.32;1.92;;;;;;;;;;5055688;28;20487;-73
2023/04/12 07:44:15;;;;;;;3.58;1.70;;;;;;;;;;5055580;28;20027;-72
2023/04/12 07:46:41;;;;;;;4.20;2.00;;;;;;;;;;5053951;28;20028;-73
2023/04/12 07:49:07;;;;;;;3.58;1.83;;;;;;;;;;5055262;28;20250;-73
2023/04/12 07:51:32;;;;;;;4.88;1.83;;;;;;;;;;5055095;28;20029;-72
2023/04/12 07:53:58;;;;;;;2.53;1.45;;;;;;;;;;5055130;28;20027;-73
2023/04/12 07:56:23;;;;;;;3.83;2.25;;;;;;;;;;5055293;28;20028;-74
2023/04/12 07:58:48;;;;;;;4.38;2.35;;;;;;;;;;5055126;28;20151;-73
2023/04/12 08:01:14;;;;;;;3.67;1.80;;;;;;;;;;5055175;28;20032;-73
2023/04/12 08:03:40;;;;;;;4.97;1.48;;;;;;;;;;5055261;28;20025;-74
2023/04/12 08:06:06;;;;;;;4.72;1.70;;;;;;;;;;5055197;28;20021;-74
2023/04/12 08:08:31;;;;;;;7.20;1.80;;;;;;;;;;5054965;28;20060;-73
2023/04/12 08:10:57;;;;;;;3.85;1.85;;;;;;;;;;5053797;28;20052;-73
2023/04/12 08:13:22;;;;;;;3.20;1.65;;;;;;;;;;5054837;28;20024;-74
2023/04/12 08:15:47;;;;;;;3.10;1.67;;;;;;;;;;5054838;28;20099;-73
2023/04/12 08:18:13;;;;;;;3.25;1.50;;;;;;;;;;5054835;28;20047;-73
2023/04/12 08:20:42;;;;;;;3.33;1.65;;;;;;;;;;5053479;28;20032;-73
2023/04/12 08:23:09;;;;;;;5.07;1.40;;;;;;;;;;5054568;28;20025;-74
2023/04/12 08:25:34;;;;;;;2.95;1.20;;;;;;;;;;5054759;28;20021;-73
2023/04/12 08:27:59;;;;;;;3.38;1.20;;;;;;;;;;5054618;28;20024;-74
2023/04/12 08:30:25;;;;;;;2.50;1.20;;;;;;;;;;5054845;28;20025;-74
2023/04/12 08:32:51;;;;;;;5.72;1.08;;;;;;;;;;5054539;28;20258;-74
2023/04/12 08:35:16;;;;;;;2.83;0.70;;;;;;;;;;5054526;28;20496;-73
2023/04/12 08:37:41;;;;;;;2.00;0.90;;;;;;;;;;5054935;28;20035;-73
2023/04/12 08:40:07;;;;;;;2.87;0.70;;;;;;;;;;5054624;28;20269;-74
2023/04/12 08:42:35;;;;;;;2.13;0.80;;;;;;;;;;5052989;28;20348;-75
2023/04/12 08:45:10;;;;;;;4.78;0.90;;;;;;;;;;5054509;28;20043;-73
2023/04/12 08:47:38;;;;;;;1.70;0.75;;;;;;;;;;5054374;28;20090;-73
2023/04/12 08:50:07;;;;;;;1.42;0.93;;;;;;;;;;5055280;28;20115;-75
2023/04/12 08:52:32;;;;;;;3.10;1.05;;;;;;;;;;5054139;28;20028;-74
2023/04/12 08:55:01;;;;;;;2.83;0.90;;;;;;;;;;5054515;28;20504;-72
2023/04/12 08:57:26;;;;;;;3.00;0.90;;;;;;;;;;5054420;28;20021;-71
2023/04/12 08:59:53;;;;;;;4.15;1.00;;;;;;;;;;5052773;28;20029;-72
2023/04/12 09:02:18;;;;;;;2.90;1.08;;;;;;;;;;5053990;28;20120;-72
2023/04/12 09:04:48;;;;;;;1.50;0.70;;;;;;;;;;5053936;28;20072;-73
2023/04/12 09:07:14;;;;;;;2.22;0.63;;;;;;;;;;5054121;28;20100;-73
2023/04/12 09:09:44;;;;;;;1.60;0.85;;;;;;;;;;5055656;28;20052;-73
2023/04/12 09:12:10;;;;;;;6.10;0.98;;;;;;;;;;5053079;28;20024;-73
2023/04/12 09:14:36;;;;;;;2.42;0.85;;;;;;;;;;5054277;28;20035;-73
2023/04/12 09:17:02;;;;;;;2.45;0.80;;;;;;;;;;5055444;28;20507;-72
2023/04/12 09:19:35;;;;;;;0.77;0.70;;;;;;;;;;5055271;28;20038;-73
2023/04/12 09:22:01;;;;;;;1.88;0.80;;;;;;;;;;5054255;28;20078;-73
2023/04/12 09:24:27;;;;;;;3.45;1.02;;;;;;;;;;5055484;28;20041;-72
2023/04/12 09:27:06;;;;;;;4.45;0.88;;;;;;;;;;5054990;28;20017;-73
2023/04/12 09:29:32;;;;;;;2.28;0.85;;;;;;;;;;5054907;28;20491;-74
2023/04/12 09:32:01;;;;;;;2.50;0.90;;;;;;;;;;5054985;28;20029;-73
2023/04/12 09:34:26;;;;;;;4.90;0.98;;;;;;;;;;5053931;28;20074;-74
2023/04/12 09:36:52;;;;;;;3.55;0.95;;;;;;;;;;5055149;28;20021;-74
2023/04/12 09:39:18;;;;;;;2.20;0.85;;;;;;;;;;5054853;28;20051;-73
2023/04/12 09:41:43;;;;;;;3.20;1.20;;;;;;;;;;5053978;28;20099;-79
2023/04/12 09:44:09;;;;;;;2.80;1.23;;;;;;;;;;5053492;28;20112;-74
2023/04/12 09:46:35;;;;;;;2.30;1.13;;;;;;;;;;5053361;28;20021;-73
2023/04/12 09:49:02;;;;;;;2.97;1.00;;;;;;;;;;5053209;28;20020;-75
2023/04/12 09:51:28;;;;;;;4.47;1.10;;;;;;;;;;5053428;28;20029;-74
2023/04/12 09:54:00;;;;;;;4.38;1.05;;;;;;;;;;5053338;28;20029;-74
2023/04/12 09:56:33;;;;;;;2.20;1.27;;;;;;;;;;5053513;28;20052;-74
2023/04/12 09:59:03;;;;;;;3.70;1.40;;;;;;;;;;5053102;28;20032;-73
2023/04/12 10:01:34;;;;;;;1.65;0.90;;;;;;;;;;5053219;28;20414;-74
2023/04/12 10:03:59;;;;;;;2.90;1.15;;;;;;;;;;5053024;28;20561;-74
2023/04/12 10:06:26;;;;;;;1.50;0.80;;;;;;;;;;5052934;28;20024;-74
2023/04/12 10:08:51;;;;;;;2.20;1.20;;;;;;;;;;5052893;28;20025;-74
2023/04/12 10:11:18;;;;;;;3.08;1.27;;;;;;;;;;5051429;28;20029;-74
2023/04/12 10:13:43;;;;;;;3.05;1.05;;;;;;;;;;5053234;28;20100;-73
2023/04/12 10:16:10;;;;;;;3.35;1.27;;;;;;;;;;5052823;28;20067;-73
2023/04/12 10:18:37;;;;;;;6.05;1.58;;;;;;;;;;5051520;28;20021;-74
2023/04/12 10:21:03;;;;;;;4.75;1.23;;;;;;;;;;5053074;28;20105;-74
2023/04/12 10:23:30;;;;;;;4.47;1.42;;;;;;;;;;5051499;28;20047;-73
2023/04/12 10:25:56;;;;;;;3.00;1.35;;;;;;;;;;5053729;28;20425;-74
2023/04/12 10:28:21;;;;;;;3.90;1.60;;;;;;;;;;5052398;28;20032;-74
2023/04/12 10:30:49;;;;;;;3.72;1.60;;;;;;;;;;5052802;28;20017;-75
2023/04/12 10:33:16;;;;;;;3.13;1.58;;;;;;;;;;5051481;28;20166;-75
2023/04/12 10:35:49;;;;;;;3.53;1.48;;;;;;;;;;5052589;28;20494;-74
2023/04/12 10:38:15;;;;;;;6.10;1.50;;;;;;;;;;5052882;28;20025;-74
2023/04/12 10:41:12;;;;;;;3.42;1.35;;;;;;;;;;5052974;28;20040;-74
2023/04/12 10:43:39;;;;;;;2.35;1.40;;;;;;;;;;5051283;28;20071;-75
2023/04/12 10:46:05;;;;;;;3.60;1.40;;;;;;;;;;5053477;28;20112;-74
2023/04/12 10:48:35;;;;;;;4.35;1.63;;;;;;;;;;5056793;28;20017;-75
2023/04/12 10:51:32;;;;;;;5.50;1.88;;;;;;;;;;5056464;28;20070;-74
2023/04/12 10:54:06;;;;;;;2.30;0.77;;;;;;;;;;5051414;28;20503;-75
2023/04/12 10:56:31;;;;;;;5.13;1.75;;;;;;;;;;5056561;28;20056;-73
2023/04/12 10:59:01;;;;;;;3.83;1.50;;;;;;;;;;5056615;28;20052;-74
2023/04/12 11:01:27;;;;;;;1.75;1.30;;;;;;;;;;5056164;28;20036;-74
2023/04/12 11:04:14;;;;;;;4.63;1.38;;;;;;;;;;5056739;28;20029;-74
2023/04/12 11:06:52;;;;;;;2.83;1.52;;;;;;;;;;5056729;28;20071;-75
2023/04/12 11:09:23;;;;;;;6.45;2.40;;;;;;;;;;5054730;28;20078;-75
2023/04/12 11:11:48;;;;;;;5.10;2.13;;;;;;;;;;5055803;28;20037;-74
2023/04/12 11:14:15;;;;;;;1.60;1.35;;;;;;;;;;5056287;28;20028;-75
2023/04/12 11:17:19;;;;;;;5.45;1.92;;;;;;;;;;5056096;28;20063;-74
2023/04/12 11:19:56;;;;;;;4.45;1.90;;;;;;;;;;5056144;28;20115;-75
2023/04/12 11:22:25;;;;;;;7.30;1.70;;;;;;;;;;5054627;28;20060;-74
2023/04/12 11:24:52;;;;;;;2.78;1.60;;;;;;;;;;5056205;28;20071;-75
2023/04/12 11:27:19;;;;;;;7.70;1.75;;;;;;;;;;5055971;28;20025;-74
2023/04/12 11:29:47;;;;;;;3.33;1.88;;;;;;;;;;5055768;28;20032;-74
2023/04/12 11:32:13;;;;;;;4.72;2.10;;;;;;;;;;5055512;28;20033;-74
2023/04/12 11:34:39;;;;;;;7.75;2.03;;;;;;;;;;5055806;28;20044;-76
2023/04/12 11:37:09;;;;;;;5.90;1.92;;;;;;;;;;5054203;28;20111;-74
2023/04/12 11:39:37;;;;;;;2.60;1.67;;;;;;;;;;5055578;28;20029;-74
2023/04/12 11:42:03;;;;;;;5.72;1.80;;;;;;;;;;5054298;28;20032;-73
2023/04/12 11:44:31;;;;;;;3.63;2.03;;;;;;;;;;5055729;28;20032;-73
2023/04/12 11:46:57;;;;;;;3.53;1.88;;;;;;;;;;5054158;28;20380;-74
2023/04/12 11:49:22;;;;;;;4.45;2.00;;;;;;;;;;5055548;28;20110;-74
2023/04/12 11:51:48;;;;;;;4.22;2.15;;;;;;;;;;5055513;28;20383;-74
2023/04/12 11:54:13;;;;;;;5.72;2.33;;;;;;;;;;5055578;28;20025;-74
2023/04/12 11:56:40;;;;;;;3.78;2.08;;;;;;;;;;5054885;28;20082;-73
2023/04/12 11:59:06;;;;;;;5.90;2.30;;;;;;;;;;5055467;28;20074;-74
2023/04/12 12:01:33;;;;;;;4.80;2.10;;;;;;;;;;5055738;28;20057;-74
2023/04/12 12:03:59;;;;;;;5.10;2.13;;;;;;;;;;5054883;28;20060;-75
2023/04/12 12:06:26;;;;;;;6.20;2.05;;;;;;;;;;5055251;28;20067;-75
2023/04/12 12:08:52;;;;;;;4.72;1.88;;;;;;;;;;5055263;28;20021;-74
2023/04/12 12:11:20;;;;;;;6.60;1.90;;;;;;;;;;5054929;28;20055;-74
2023/04/12 12:13:47;;;;;;;4.13;1.90;;;;;;;;;;5054991;28;20036;-75
2023/04/12 12:16:13;;;;;;;3.03;1.83;;;;;;;;;;5055607;28;20025;-74
2023/04/12 12:18:45;;;;;;;4.20;1.85;;;;;;;;;;5054700;28;20078;-74
2023/04/12 12:21:12;;;;;;;3.90;1.63;;;;;;;;;;5055279;28;20108;-75
2023/04/12 12:23:37;;;;;;;5.28;1.95;;;;;;;;;;5054473;28;20072;-75
2023/04/12 12:26:04;;;;;;;4.18;2.03;;;;;;;;;;5053404;28;20441;-74
2023/04/12 12:28:29;;;;;;;4.05;2.00;;;;;;;;;;5054527;28;20030;-75
2023/04/12 12:30:56;;;;;;;2.35;1.52;;;;;;;;;;5054471;28;20021;-74
2023/04/12 12:33:35;;;;;;;4.70;1.55;;;;;;;;;;5054306;28;20021;-75
2023/04/12 12:36:00;;;;;;;4.20;1.65;;;;;;;;;;5054301;28;20135;-75
2023/04/12 12:38:33;;;;;;;5.40;1.73;;;;;;;;;;5054125;28;20029;-75
2023/04/12 12:41:13;;;;;;;4.47;1.80;;;;;;;;;;5054593;28;20472;-75
2023/04/12 12:43:45;;;;;;;3.47;1.35;;;;;;;;;;5054288;28;20043;-74
2023/04/12 12:46:11;;;;;;;4.10;1.58;;;;;;;;;;5054810;28;20461;-75
2023/04/12 12:48:40;;;;;;;2.78;1.30;;;;;;;;;;5052943;28;20017;-74
2023/04/12 12:51:07;;;;;;;6.78;1.63;;;;;;;;;;5052956;28;20017;-74
2023/04/12 12:53:32;;;;;;;5.63;1.50;;;;;;;;;;5054013;28;20540;-74
2023/04/12 12:55:57;;;;;;;2.65;1.33;;;;;;;;;;5054298;28;20124;-74
2023/04/12 12:58:22;;;;;;;3.03;1.40;;;;;;;;;;5054512;28;20120;-73
2023/04/12 13:00:48;;;;;;;2.93;1.30;;;;;;;;;;5054205;28;20309;-74
2023/04/12 13:03:13;;;;;;;3.03;1.10;;;;;;;;;;5052575;28;20301;-73
2023/04/12 13:05:38;;;;;;;2.40;1.50;;;;;;;;;;5053891;28;20266;-74
2023/04/12 13:08:03;;;;;;;2.87;1.43;;;;;;;;;;5053595;28;20299;-74
2023/04/12 13:10:29;;;;;;;4.07;1.10;;;;;;;;;;5054052;28;20269;-74
2023/04/12 13:12:54;;;;;;;3.45;1.40;;;;;;;;;;5053764;28;20020;-75
2023/04/12 13:15:19;;;;;;;4.93;1.30;;;;;;;;;;5054352;28;20029;-75
2023/04/12 13:17:44;;;;;;;4.97;1.10;;;;;;;;;;5054095;28;20369;-74
2023/04/12 13:20:10;;;;;;;5.65;1.30;;;;;;;;;;5053579;28;20294;-74
2023/04/12 13:22:35;;;;;;;1.40;0.85;;;;;;;;;;5054699;28;20021;-75
2023/04/12 13:25:00;;;;;;;2.60;1.00;;;;;;;;;;5053516;28;20021;-75
2023/04/12 13:27:26;;;;;;;2.50;1.10;;;;;;;;;;5053566;28;20021;-74
2023/04/12 13:29:51;;;;;;;3.95;1.27;;;;;;;;;;5053478;28;20391;-74
2023/04/12 13:32:17;;;;;;;3.87;1.50;;;;;;;;;;5053330;28;20029;-74
2023/04/12 13:34:42;;;;;;;3.95;1.38;;;;;;;;;;5053382;28;20268;-74
2023/04/12 13:37:08;;;;;;;2.00;0.98;;;;;;;;;;5053588;28;20162;-74
2023/04/12 13:39:34;;;;;;;3.63;1.10;;;;;;;;;;5053502;28;20079;-73
2023/04/12 13:42:00;;;;;;;2.92;1.30;;;;;;;;;;5053318;28;20250;-74
2023/04/12 13:44:26;;;;;;;3.63;1.20;;;;;;;;;;5053157;28;20020;-74
2023/04/12 13:46:52;;;;;;;4.47;1.13;;;;;;;;;;5053337;28;20021;-74
2023/04/12 13:49:17;;;;;;;5.07;1.38;;;;;;;;;;5053027;28;20028;-76
2023/04/12 13:51:42;;;;;;;5.30;1.37;;;;;;;;;;5053224;28;20047;-74
2023/04/12 13:54:08;;;;;;;4.00;1.10;;;;;;;;;;5051783;28;20693;-74
2023/04/12 13:56:33;;;;;;;3.50;1.20;;;;;;;;;;5053515;28;20025;-74
2023/04/12 13:58:59;;;;;;;2.70;1.15;;;;;;;;;;5053187;28;20281;-74
2023/04/12 14:01:24;;;;;;;2.70;1.10;;;;;;;;;;5053153;28;20104;-74
2023/04/12 14:03:50;;;;;;;4.30;1.13;;;;;;;;;;5052953;28;20104;-74
2023/04/12 14:06:16;;;;;;;5.93;1.20;;;;;;;;;;5053101;28;20488;-74
2023/04/12 14:08:41;;;;;;;2.47;1.20;;;;;;;;;;5053419;28;20082;-74
2023/04/12 14:11:06;;;;;;;2.25;1.10;;;;;;;;;;5051489;28;20266;-74
2023/04/12 14:13:31;;;;;;;3.47;1.17;;;;;;;;;;5052788;28;20017;-73
2023/04/12 14:15:57;;;;;;;2.72;1.20;;;;;;;;;;5052870;28;20258;-75
2023/04/12 14:18:22;;;;;;;7.03;1.00;;;;;;;;;;5052660;28;20098;-75
2023/04/12 14:20:53;;;;;;;2.27;1.00;;;;;;;;;;5058499;28;20374;-74
2023/04/12 14:23:23;;;;;;;2.92;1.08;;;;;;;;;;5059651;28;20262;-74
2023/04/12 14:25:49;;;;;;;4.20;1.10;;;;;;;;;;5060086;28;20071;-74
2023/04/12 14:28:16;;;;;;;3.65;1.40;;;;;;;;;;5059289;28;20477;-75
2023/04/12 14:30:42;;;;;;;3.42;1.00;;;;;;;;;;5059256;28;20028;-75
2023/04/12 14:33:07;;;;;;;3.05;1.20;;;;;;;;;;5058280;28;20505;-74
2023/04/12 14:35:33;;;;;;;3.60;1.10;;;;;;;;;;5059319;28;20060;-75
2023/04/12 14:37:58;;;;;;;2.97;1.20;;;;;;;;;;5059131;28;20040;-74
2023/04/12 14:40:23;;;;;;;2.40;1.03;;;;;;;;;;5059737;28;20482;-75
2023/04/12 14:42:48;;;;;;;4.82;1.25;;;;;;;;;;5059587;28;20254;-74